createdAt,value
2022-11-05T00:00:08.905Z,6.65
2022-11-05T00:02:54.183Z,6.10
2022-11-05T00:05:39.467Z,5.88
2022-11-05T00:08:24.586Z,6.25
2022-11-05T00:10:51.161Z,6.38
2022-11-05T00:13:37.499Z,6.05
2022-11-05T00:16:22.568Z,6.00
2022-11-05T00:19:06.873Z,5.93
2022-11-05T00:21:52.946Z,5.82
2022-11-05T00:24:38.709Z,5.45
2022-11-05T00:27:05.199Z,6.03
2022-11-05T00:29:31.805Z,5.72
2022-11-05T00:31:58.354Z,6.18
2022-11-05T00:34:24.945Z,4.93
2022-11-05T00:36:51.484Z,5.78
2022-11-05T00:39:18.063Z,6.20
2022-11-05T00:42:04.603Z,5.90
2022-11-05T00:44:49.484Z,6.13
2022-11-05T00:47:34.751Z,5.38
2022-11-05T00:50:01.234Z,5.95
2022-11-05T00:52:46.206Z,5.60
2022-11-05T00:55:12.910Z,5.53
2022-11-05T00:57:39.804Z,5.72
2022-11-05T01:00:06.810Z,5.40
2022-11-05T01:02:33.466Z,6.00
2022-11-05T01:05:00.040Z,6.03
2022-11-05T01:07:26.614Z,5.32
2022-11-05T01:09:53.056Z,5.20
2022-11-05T01:12:19.719Z,5.47
2022-11-05T01:14:46.332Z,5.40
2022-11-05T01:17:12.892Z,5.28
2022-11-05T01:19:39.738Z,5.85
2022-11-05T01:22:06.418Z,4.85
2022-11-05T01:24:32.991Z,5.65
2022-11-05T01:26:59.860Z,5.38
2022-11-05T01:29:26.540Z,5.20
2022-11-05T01:31:53.185Z,5.53
2022-11-05T01:34:19.608Z,5.18
2022-11-05T01:36:46.171Z,4.53
2022-11-05T01:39:12.926Z,5.22
2022-11-05T01:41:39.458Z,4.93
2022-11-05T01:44:06.022Z,5.15
2022-11-05T01:46:41.360Z,5.30
2022-11-05T01:49:22.998Z,5.07
2022-11-05T01:51:51.280Z,4.95
2022-11-05T01:54:24.189Z,5.22
2022-11-05T01:56:54.631Z,5.38
2022-11-05T01:59:29.445Z,5.35
2022-11-05T02:01:58.455Z,6.15
2022-11-05T02:04:35.745Z,5.10
2022-11-05T02:07:04.649Z,5.70
2022-11-05T02:09:36.781Z,5.15
2022-11-05T02:12:03.846Z,5.38
2022-11-05T02:14:30.361Z,6.53
2022-11-05T02:17:03.476Z,5.93
2022-11-05T02:20:17.538Z,5.82
2022-11-05T02:22:53.231Z,5.57
2022-11-05T02:25:59.719Z,5.60
2022-11-05T02:29:01.595Z,5.53
2022-11-05T02:31:43.170Z,5.65
2022-11-05T02:34:27.884Z,5.25
2022-11-05T02:37:04.565Z,5.43
2022-11-05T02:39:47.175Z,6.13
2022-11-05T02:42:16.565Z,5.35
2022-11-05T02:44:57.004Z,5.90
2022-11-05T02:47:42.163Z,5.20
2022-11-05T02:50:21.124Z,5.55
2022-11-05T02:52:57.967Z,5.50
2022-11-05T02:55:40.163Z,5.90
2022-11-05T02:58:07.752Z,5.28
2022-11-05T03:00:53.657Z,6.20
2022-11-05T03:03:35.901Z,5.68
2022-11-05T03:06:25.795Z,5.28
2022-11-05T03:09:11.093Z,5.47
2022-11-05T03:11:53.475Z,5.32
2022-11-05T03:14:32.675Z,5.53
2022-11-05T03:17:09.044Z,5.50
2022-11-05T03:19:47.875Z,5.55
2022-11-05T03:22:24.206Z,5.85
2022-11-05T03:25:02.056Z,6.25
2022-11-05T03:27:35.167Z,5.88
2022-11-05T03:30:10.703Z,5.70
2022-11-05T03:32:42.497Z,5.10
2022-11-05T03:35:16.359Z,5.35
2022-11-05T03:37:45.232Z,5.95
2022-11-05T03:40:14.607Z,6.07
2022-11-05T03:42:46.095Z,5.47
2022-11-05T03:45:21.374Z,5.13
2022-11-05T03:47:52.366Z,5.75
2022-11-05T03:50:21.922Z,5.75
2022-11-05T03:52:53.624Z,6.10
2022-11-05T03:55:26.370Z,5.40
2022-11-05T03:57:55.740Z,6.22
2022-11-05T04:00:23.420Z,5.90
2022-11-05T04:02:50.417Z,5.13
2022-11-05T04:05:17.286Z,5.90
2022-11-05T04:08:03.536Z,5.82
2022-11-05T04:10:48.579Z,5.85
2022-11-05T04:13:24.204Z,5.28
2022-11-05T04:16:10.875Z,5.78
2022-11-05T04:18:38.194Z,5.50
2022-11-05T04:21:24.501Z,5.85
2022-11-05T04:24:09.759Z,6.00
2022-11-05T04:26:41.987Z,5.25
2022-11-05T04:29:27.198Z,5.85
2022-11-05T04:31:54.137Z,6.05
2022-11-05T04:34:22.091Z,5.90
2022-11-05T04:36:50.518Z,5.75
2022-11-05T04:39:18.607Z,6.05
2022-11-05T04:41:48.284Z,6.65
2022-11-05T04:44:15.981Z,5.80
2022-11-05T04:46:42.498Z,5.47
2022-11-05T04:49:09.126Z,6.43
2022-11-05T04:51:35.604Z,6.03
2022-11-05T04:54:02.193Z,5.35
2022-11-05T04:56:29.049Z,6.13
2022-11-05T04:58:55.610Z,6.22
2022-11-05T05:01:25.211Z,5.97
2022-11-05T05:03:53.308Z,5.97
2022-11-05T05:06:21.162Z,6.60
2022-11-05T05:08:49.670Z,5.85
2022-11-05T05:11:19.357Z,5.28
2022-11-05T05:13:45.867Z,6.07
2022-11-05T05:16:23.891Z,6.20
2022-11-05T05:18:51.252Z,6.45
2022-11-05T05:21:38.130Z,6.40
2022-11-05T05:24:10.756Z,5.93
2022-11-05T05:26:39.625Z,5.50
2022-11-05T05:29:06.794Z,6.07
2022-11-05T05:31:33.663Z,5.93
2022-11-05T05:34:00.087Z,6.15
2022-11-05T05:36:27.485Z,5.88
2022-11-05T05:38:54.197Z,6.28
2022-11-05T05:41:21.121Z,6.00
2022-11-05T05:43:47.881Z,6.13
2022-11-05T05:46:16.915Z,6.05
2022-11-05T05:48:47.835Z,6.32
2022-11-05T05:51:14.270Z,5.68
2022-11-05T05:53:40.799Z,6.28
2022-11-05T05:56:07.784Z,6.05
2022-11-05T05:58:39.498Z,5.80
2022-11-05T06:01:18.242Z,6.28
2022-11-05T06:03:45.135Z,6.35
2022-11-05T06:06:15.460Z,6.60
2022-11-05T06:08:42.558Z,6.22
2022-11-05T06:11:09.908Z,6.43
2022-11-05T06:13:37.410Z,7.15
2022-11-05T06:16:06.872Z,6.68
2022-11-05T06:18:34.589Z,6.40
2022-11-05T06:21:12.825Z,6.68
2022-11-05T06:23:40.849Z,6.43
2022-11-05T06:26:16.628Z,6.43
2022-11-05T06:28:43.270Z,6.72
2022-11-05T06:31:11.231Z,7.15
2022-11-05T06:33:38.524Z,7.07
2022-11-05T06:36:06.899Z,7.10
2022-11-05T06:38:35.382Z,7.03
2022-11-05T06:41:09.787Z,6.93
2022-11-05T06:43:37.161Z,6.97
2022-11-05T06:46:05.595Z,7.05
2022-11-05T06:48:32.096Z,6.43
2022-11-05T06:50:58.699Z,6.78
2022-11-05T06:53:25.332Z,6.50
2022-11-05T06:55:52.366Z,7.20
2022-11-05T06:58:18.923Z,6.95
2022-11-05T07:00:46.726Z,8.23
2022-11-05T07:03:14.292Z,7.28
2022-11-05T07:05:48.102Z,7.80
2022-11-05T07:08:15.392Z,7.43
2022-11-05T07:10:42.158Z,7.32
2022-11-05T07:13:09.195Z,6.97
2022-11-05T07:15:37.063Z,6.93
2022-11-05T07:18:04.208Z,7.13
2022-11-05T07:20:33.959Z,6.68
2022-11-05T07:23:13.971Z,7.07
2022-11-05T07:25:42.284Z,7.30
2022-11-05T07:28:10.390Z,6.85
2022-11-05T07:30:37.358Z,6.85
2022-11-05T07:33:04.417Z,7.90
2022-11-05T07:35:31.269Z,7.40
2022-11-05T07:37:58.096Z,6.45
2022-11-05T07:40:26.433Z,7.18
2022-11-05T07:42:58.363Z,8.52
2022-11-05T07:45:26.442Z,7.32
2022-11-05T07:48:01.585Z,7.43
2022-11-05T07:50:31.697Z,7.72
2022-11-05T07:53:16.280Z,7.38
2022-11-05T07:55:43.939Z,7.25
2022-11-05T07:58:12.333Z,8.32
2022-11-05T08:00:39.164Z,7.20
2022-11-05T08:03:15.187Z,7.63
2022-11-05T08:05:46.180Z,7.72
2022-11-05T08:08:17.779Z,6.88
2022-11-05T08:10:45.123Z,6.93
2022-11-05T08:13:13.227Z,6.78
2022-11-05T08:15:40.939Z,7.38
2022-11-05T08:18:13.410Z,7.15
2022-11-05T08:20:41.617Z,7.50
2022-11-05T08:23:09.374Z,5.97
2022-11-05T08:25:36.447Z,6.90
2022-11-05T08:28:13.667Z,5.95
2022-11-05T08:30:40.489Z,5.95
2022-11-05T08:33:11.699Z,6.28
2022-11-05T08:35:39.179Z,5.78
2022-11-05T08:38:07.818Z,6.13
2022-11-05T08:40:36.449Z,5.45
2022-11-05T08:43:05.625Z,5.22
2022-11-05T08:45:32.577Z,6.13
2022-11-05T08:48:00.368Z,5.80
2022-11-05T08:50:27.403Z,5.53
2022-11-05T08:52:53.887Z,5.13
2022-11-05T08:55:20.428Z,5.20
2022-11-05T08:57:47.086Z,6.47
2022-11-05T09:00:14.833Z,5.65
2022-11-05T09:02:41.689Z,5.70
2022-11-05T09:05:08.709Z,5.78
2022-11-05T09:07:35.120Z,6.35
2022-11-05T09:10:01.605Z,5.07
2022-11-05T09:12:28.338Z,4.70
2022-11-05T09:14:55.074Z,5.43
2022-11-05T09:17:22.237Z,5.18
2022-11-05T09:19:48.812Z,5.07
2022-11-05T09:22:15.804Z,6.03
2022-11-05T09:24:43.404Z,5.38
2022-11-05T09:27:13.096Z,5.82
2022-11-05T09:29:40.346Z,4.93
2022-11-05T09:32:07.395Z,4.82
2022-11-05T09:34:34.796Z,4.20
2022-11-05T09:37:01.992Z,5.55
2022-11-05T09:39:28.630Z,5.80
2022-11-05T09:42:02.272Z,5.95
2022-11-05T09:44:52.869Z,5.30
2022-11-05T09:47:29.473Z,5.13
2022-11-05T09:49:59.071Z,4.82
2022-11-05T09:52:29.409Z,4.78
2022-11-05T09:54:57.707Z,4.15
2022-11-05T09:57:29.747Z,4.85
2022-11-05T10:00:02.285Z,5.18
2022-11-05T10:02:42.770Z,5.20
2022-11-05T10:05:12.799Z,5.55
2022-11-05T10:07:47.529Z,5.85
2022-11-05T10:10:23.054Z,6.47
2022-11-05T10:12:57.650Z,6.18
2022-11-05T10:15:30.681Z,6.22
2022-11-05T10:18:11.981Z,5.88
2022-11-05T10:20:39.520Z,6.50
2022-11-05T10:23:11.987Z,4.70
2022-11-05T10:25:43.783Z,5.65
2022-11-05T10:28:17.226Z,5.90
2022-11-05T10:30:46.402Z,5.07
2022-11-05T10:33:18.102Z,5.25
2022-11-05T10:35:52.399Z,6.40
2022-11-05T10:38:19.014Z,6.10
2022-11-05T10:40:52.153Z,5.13
2022-11-05T10:43:23.724Z,5.25
2022-11-05T10:46:06.369Z,5.68
2022-11-05T10:48:47.734Z,5.57
2022-11-05T10:51:14.751Z,4.25
2022-11-05T10:54:01.337Z,4.70
2022-11-05T10:56:40.153Z,5.00
2022-11-05T10:59:24.451Z,5.50
2022-11-05T11:02:22.790Z,4.32
2022-11-05T11:04:54.272Z,4.85
2022-11-05T11:07:24.811Z,5.70
2022-11-05T11:09:52.463Z,4.85
2022-11-05T11:12:25.956Z,4.82
2022-11-05T11:15:03.288Z,4.25
2022-11-05T11:17:32.367Z,4.63
2022-11-05T11:20:28.549Z,4.72
2022-11-05T11:23:12.222Z,5.47
2022-11-05T11:25:53.313Z,4.55
2022-11-05T11:28:26.602Z,4.45
2022-11-05T11:31:15.666Z,4.07
2022-11-05T11:33:49.201Z,4.07
2022-11-05T11:36:20.992Z,3.80
2022-11-05T11:38:48.106Z,4.50
2022-11-05T11:41:43.085Z,3.70
2022-11-05T11:44:18.227Z,4.03
2022-11-05T11:46:50.731Z,4.07
2022-11-05T11:49:45.965Z,3.60
2022-11-05T11:52:38.938Z,3.80
2022-11-05T11:55:11.473Z,3.85
2022-11-05T11:57:53.432Z,4.30
2022-11-05T12:00:23.674Z,3.88
2022-11-05T12:03:11.346Z,3.70
2022-11-05T12:09:02.076Z,3.50
2022-11-05T12:11:41.935Z,3.75
2022-11-05T12:14:25.272Z,4.05
2022-11-05T12:17:10.729Z,4.80
2022-11-05T12:19:56.769Z,4.03
2022-11-05T12:22:36.680Z,3.47
2022-11-05T12:25:12.307Z,3.53
2022-11-05T12:27:56.766Z,3.20
2022-11-05T12:30:23.854Z,3.58
2022-11-05T12:33:13.047Z,3.28
2022-11-05T12:36:02.886Z,3.25
2022-11-05T12:38:53.128Z,3.50
2022-11-05T12:41:42.052Z,2.88
2022-11-05T12:44:22.883Z,3.40
2022-11-05T12:47:24.746Z,2.75
2022-11-05T12:50:15.257Z,2.67
2022-11-05T12:53:00.125Z,2.80
2022-11-05T12:55:33.733Z,3.00
2022-11-05T12:58:26.879Z,2.72
2022-11-05T13:01:08.012Z,2.60
2022-11-05T13:03:57.990Z,2.70
2022-11-05T13:06:42.207Z,2.95
2022-11-05T13:09:21.711Z,3.40
2022-11-05T13:11:54.734Z,3.20
2022-11-05T13:14:27.517Z,3.17
2022-11-05T13:17:00.337Z,2.85
2022-11-05T13:19:34.783Z,3.08
2022-11-05T13:22:11.295Z,2.60
2022-11-05T13:24:49.506Z,2.80
2022-11-05T13:27:18.966Z,2.70
2022-11-05T13:29:59.264Z,2.35
2022-11-05T13:32:31.300Z,2.72
2022-11-05T13:35:00.996Z,2.92
2022-11-05T13:38:01.783Z,2.35
2022-11-05T13:40:40.807Z,2.88
2022-11-05T13:43:21.291Z,2.92
2022-11-05T13:46:06.616Z,2.33
2022-11-05T13:48:57.263Z,2.45
2022-11-05T13:51:26.451Z,2.55
2022-11-05T13:53:58.972Z,2.17
2022-11-05T13:56:54.857Z,2.70
2022-11-05T13:59:30.393Z,2.58
2022-11-05T14:01:59.983Z,3.05
2022-11-05T14:04:49.125Z,2.40
2022-11-05T14:07:22.574Z,2.50
2022-11-05T14:09:58.696Z,2.67
2022-11-05T14:12:32.659Z,2.50
2022-11-05T14:15:20.284Z,3.03
2022-11-05T14:18:05.470Z,3.28
2022-11-05T14:20:32.121Z,3.17
2022-11-05T14:23:36.200Z,2.88
2022-11-05T14:26:35.122Z,2.72
2022-11-05T14:29:04.820Z,2.55
2022-11-05T14:32:07.155Z,2.50
2022-11-05T14:34:46.917Z,3.20
2022-11-05T14:37:13.590Z,3.03
2022-11-05T14:39:41.364Z,3.08
2022-11-05T14:42:26.655Z,2.97
2022-11-05T14:45:02.203Z,3.35
2022-11-05T14:47:37.794Z,3.00
2022-11-05T14:50:19.782Z,2.97
2022-11-05T14:52:55.092Z,2.85
2022-11-05T14:55:43.263Z,2.35
2022-11-05T14:58:30.052Z,2.67
2022-11-05T15:00:57.731Z,2.65
2022-11-05T15:03:36.259Z,2.78
2022-11-05T15:06:35.170Z,2.58
2022-11-05T15:09:24.475Z,2.42
2022-11-05T15:12:02.390Z,2.50
2022-11-05T15:14:34.238Z,2.67
2022-11-05T15:17:51.387Z,2.60
2022-11-05T15:20:22.118Z,2.20
2022-11-05T15:22:53.069Z,2.80
2022-11-05T15:25:41.773Z,2.47
2022-11-05T15:28:34.118Z,2.10
2022-11-05T15:31:03.651Z,2.15
2022-11-05T15:33:31.292Z,1.80
2022-11-05T15:36:12.746Z,1.95
2022-11-05T15:38:41.202Z,1.98
2022-11-05T15:41:31.916Z,2.38
2022-11-05T15:43:58.690Z,2.63
2022-11-05T15:46:28.306Z,1.92
2022-11-05T15:48:59.321Z,2.17
2022-11-05T15:51:26.792Z,2.28
2022-11-05T15:54:24.018Z,2.53
2022-11-05T15:56:56.364Z,2.10
2022-11-05T15:59:25.748Z,2.17
2022-11-05T16:01:57.077Z,2.28
2022-11-05T16:04:30.523Z,2.15
2022-11-05T16:07:07.299Z,2.38
2022-11-05T16:09:37.289Z,2.35
2022-11-05T16:12:24.035Z,2.25
2022-11-05T16:15:08.906Z,2.63
2022-11-05T16:17:55.862Z,2.95
2022-11-05T16:20:34.594Z,2.63
2022-11-05T16:23:04.329Z,2.47
2022-11-05T16:25:39.972Z,2.78
2022-11-05T16:28:20.883Z,2.53
2022-11-05T16:31:07.299Z,2.67
2022-11-05T16:33:40.545Z,3.13
2022-11-05T16:36:08.478Z,2.90
2022-11-05T16:38:35.150Z,2.67
2022-11-05T16:41:01.958Z,2.67
2022-11-05T16:43:28.713Z,2.28
2022-11-05T16:45:58.507Z,2.35
2022-11-05T16:48:26.432Z,3.28
2022-11-05T16:50:53.632Z,2.97
2022-11-05T16:53:20.231Z,2.88
2022-11-05T16:55:47.293Z,3.25
2022-11-05T16:58:23.055Z,2.80
2022-11-05T17:00:51.537Z,3.22
2022-11-05T17:03:18.171Z,3.05
2022-11-05T17:05:44.670Z,2.75
2022-11-05T17:08:12.604Z,2.85
2022-11-05T17:10:39.203Z,3.30
2022-11-05T17:13:05.650Z,3.20
2022-11-05T17:15:36.768Z,3.20
2022-11-05T17:18:05.273Z,3.20
2022-11-05T17:23:09.971Z,3.15
2022-11-05T17:25:37.529Z,3.45
2022-11-05T17:28:04.620Z,3.78
2022-11-05T17:30:32.006Z,3.88
2022-11-05T17:32:59.296Z,3.75
2022-11-05T17:35:26.396Z,4.78
2022-11-05T17:37:53.014Z,4.28
2022-11-05T17:40:22.508Z,3.78
2022-11-05T17:42:50.897Z,3.75
2022-11-05T17:45:17.681Z,4.32
2022-11-05T17:47:44.521Z,3.08
2022-11-05T17:50:14.188Z,3.80
2022-11-05T17:52:40.635Z,2.67
2022-11-05T17:55:16.194Z,3.10
2022-11-05T17:57:50.774Z,2.60
2022-11-05T18:00:20.371Z,3.30
2022-11-05T18:02:49.419Z,2.90
2022-11-05T18:05:18.087Z,3.38
2022-11-05T18:07:45.390Z,3.00
2022-11-05T18:10:12.200Z,3.22
2022-11-05T18:12:39.027Z,2.75
2022-11-05T18:15:06.615Z,3.38
2022-11-05T18:17:34.069Z,3.10
2022-11-05T18:20:00.723Z,2.85
2022-11-05T18:22:27.272Z,3.47
2022-11-05T18:24:54.637Z,2.85
2022-11-05T18:27:24.549Z,2.92
2022-11-05T18:29:51.191Z,2.25
2022-11-05T18:32:17.704Z,2.67
2022-11-05T18:34:44.215Z,2.42
2022-11-05T18:37:10.745Z,3.13
2022-11-05T18:39:37.495Z,2.88
2022-11-05T18:42:04.807Z,3.38
2022-11-05T18:44:36.247Z,3.28
2022-11-05T18:47:06.700Z,2.95
2022-11-05T18:49:33.853Z,2.85
2022-11-05T18:52:00.492Z,3.47
2022-11-05T18:54:27.392Z,3.17
2022-11-05T18:56:54.002Z,3.60
2022-11-05T18:59:39.129Z,3.65
2022-11-05T19:02:07.679Z,3.10
2022-11-05T19:04:37.986Z,3.40
2022-11-05T19:07:07.313Z,3.55
2022-11-05T19:09:38.348Z,3.05
2022-11-05T19:12:06.350Z,3.75
2022-11-05T19:14:33.824Z,3.08
2022-11-05T19:17:00.696Z,3.45
2022-11-05T19:19:27.760Z,3.00
2022-11-05T19:21:54.592Z,3.30
2022-11-05T19:24:21.244Z,3.42
2022-11-05T19:26:48.076Z,3.50
2022-11-05T19:29:14.819Z,2.70
2022-11-05T19:31:41.946Z,3.55
2022-11-05T19:34:08.796Z,3.33
2022-11-05T19:36:35.353Z,3.50
2022-11-05T19:39:06.310Z,3.33
2022-11-05T19:41:33.079Z,3.20
2022-11-05T19:44:01.490Z,3.60
2022-11-05T19:46:28.705Z,3.50
2022-11-05T19:48:55.262Z,3.22
2022-11-05T19:51:27.663Z,3.65
2022-11-05T19:53:55.414Z,3.53
2022-11-05T19:56:27.702Z,3.40
2022-11-05T19:58:56.232Z,3.28
2022-11-05T20:03:50.856Z,4.25
2022-11-05T20:06:20.949Z,3.70
2022-11-05T20:09:15.287Z,3.58
2022-11-05T20:11:40.127Z,3.92
2022-11-05T20:14:07.639Z,4.03
2022-11-05T20:16:38.214Z,4.20
2022-11-05T20:19:08.160Z,4.38
2022-11-05T20:21:35.264Z,4.30
2022-11-05T20:24:02.504Z,4.43
2022-11-05T20:26:29.292Z,4.22
2022-11-05T20:28:56.317Z,4.32
2022-11-05T20:31:23.120Z,4.88
2022-11-05T20:33:51.334Z,4.88
2022-11-05T20:36:22.220Z,5.05
2022-11-05T20:38:53.279Z,5.60
2022-11-05T20:41:19.904Z,5.35
2022-11-05T20:43:47.930Z,4.63
2022-11-05T20:46:17.061Z,5.10
2022-11-05T20:48:44.211Z,4.43
2022-11-05T20:51:21.674Z,4.78
2022-11-05T20:53:48.905Z,4.22
2022-11-05T20:56:18.153Z,4.20
2022-11-05T20:58:44.569Z,4.18
2022-11-05T21:01:13.218Z,4.50
2022-11-05T21:03:39.888Z,4.38
2022-11-05T21:06:06.443Z,4.10
2022-11-05T21:08:33.689Z,4.20
2022-11-05T21:11:00.498Z,3.72
2022-11-05T21:13:27.744Z,4.45
2022-11-05T21:15:57.038Z,4.68
2022-11-05T21:18:28.636Z,4.18
2022-11-05T21:20:55.679Z,3.85
2022-11-05T21:23:22.259Z,3.63
2022-11-05T21:25:48.725Z,4.10
2022-11-05T21:28:15.959Z,3.83
2022-11-05T21:30:49.150Z,4.05
2022-11-05T21:33:18.535Z,3.90
2022-11-05T21:35:47.871Z,3.78
2022-11-05T21:38:16.752Z,3.38
2022-11-05T21:40:44.635Z,3.92
2022-11-05T21:43:12.364Z,4.03
2022-11-05T21:45:42.702Z,3.60
2022-11-05T21:48:10.423Z,3.80
2022-11-05T21:51:04.271Z,4.15
2022-11-05T21:53:49.187Z,3.40
2022-11-05T21:56:41.009Z,4.35
2022-11-05T21:59:30.305Z,4.72
2022-11-05T22:02:01.722Z,4.10
2022-11-05T22:04:34.026Z,4.05
2022-11-05T22:07:00.642Z,4.13
2022-11-05T22:09:27.984Z,4.45
2022-11-05T22:11:54.961Z,4.68
2022-11-05T22:14:21.686Z,4.20
2022-11-05T22:16:48.482Z,4.53
2022-11-05T22:19:14.976Z,4.40
2022-11-05T22:21:41.679Z,4.65
2022-11-05T22:24:08.419Z,4.53
2022-11-05T22:26:35.891Z,4.45
2022-11-05T22:29:02.312Z,4.03
2022-11-05T22:31:34.748Z,3.42
2022-11-05T22:34:02.935Z,3.75
2022-11-05T22:36:29.568Z,3.80
2022-11-05T22:38:55.996Z,4.10
2022-11-05T22:41:22.553Z,4.10
2022-11-05T22:43:49.370Z,3.65
2022-11-05T22:46:22.425Z,3.55
2022-11-05T22:48:49.767Z,4.18
2022-11-05T22:51:22.160Z,4.32
2022-11-05T22:53:49.525Z,4.55
2022-11-05T22:56:22.648Z,4.18
2022-11-05T22:58:49.773Z,4.07
2022-11-05T23:01:17.901Z,4.05
2022-11-05T23:03:46.461Z,4.32
2022-11-05T23:06:36.725Z,3.85
2022-11-05T23:09:26.600Z,4.50
2022-11-05T23:11:54.091Z,4.30
2022-11-05T23:14:20.725Z,3.78
2022-11-05T23:17:05.811Z,3.95
2022-11-05T23:19:50.919Z,5.13
2022-11-05T23:22:39.307Z,4.03
2022-11-05T23:25:09.193Z,4.32
2022-11-05T23:27:37.354Z,4.25
2022-11-05T23:30:11.424Z,4.40
2022-11-05T23:32:38.151Z,3.80
2022-11-05T23:35:05.243Z,4.25
2022-11-05T23:37:50.413Z,3.65
2022-11-05T23:40:20.752Z,3.75
2022-11-05T23:43:06.511Z,4.30
2022-11-05T23:45:52.238Z,4.25
2022-11-05T23:48:30.792Z,3.50
2022-11-05T23:51:03.379Z,4.30
2022-11-05T23:53:32.442Z,4.20
2022-11-05T23:56:05.656Z,4.50
2022-11-05T23:58:33.263Z,4.63
